sensor_id;sensor_type;location;lat;lon;timestamp;P1;durP1;ratioP1;P2;durP2;ratioP2
11957;SDS011;6039;52.576;13.348;2022-09-03T00:04:26;2.53;;;1.43;;
11957;SDS011;6039;52.576;13.348;2022-09-03T00:09:36;3.63;;;1.70;;
11957;SDS011;6039;52.576;13.348;2022-09-03T00:14:41;7.17;;;2.10;;
11957;SDS011;6039;52.576;13.348;2022-09-03T00:19:52;1.73;;;1.50;;
11957;SDS011;6039;52.576;13.348;2022-09-03T00:24:57;5.30;;;2.00;;
11957;SDS011;6039;52.576;13.348;2022-09-03T00:30:03;3.37;;;1.93;;
11957;SDS011;6039;52.576;13.348;2022-09-03T00:35:10;2.43;;;1.80;;
11957;SDS011;6039;52.576;13.348;2022-09-03T00:40:20;6.20;;;1.83;;
11957;SDS011;6039;52.576;13.348;2022-09-03T00:45:38;2.90;;;1.80;;
11957;SDS011;6039;52.576;13.348;2022-09-03T00:50:52;2.73;;;1.70;;
11957;SDS011;6039;52.576;13.348;2022-09-03T00:56:04;2.13;;;1.60;;
11957;SDS011;6039;52.576;13.348;2022-09-03T01:01:13;4.57;;;1.83;;
11957;SDS011;6039;52.576;13.348;2022-09-03T01:06:18;2.60;;;1.60;;
11957;SDS011;6039;52.576;13.348;2022-09-03T01:11:27;5.07;;;1.80;;
11957;SDS011;6039;52.576;13.348;2022-09-03T01:16:37;4.20;;;1.60;;
11957;SDS011;6039;52.576;13.348;2022-09-03T01:21:50;4.23;;;1.40;;
11957;SDS011;6039;52.576;13.348;2022-09-03T01:27:08;2.00;;;1.53;;
11957;SDS011;6039;52.576;13.348;2022-09-03T01:32:21;1.80;;;1.60;;
11957;SDS011;6039;52.576;13.348;2022-09-03T01:37:31;2.03;;;1.47;;
11957;SDS011;6039;52.576;13.348;2022-09-03T01:42:40;2.80;;;1.77;;
11957;SDS011;6039;52.576;13.348;2022-09-03T01:53:17;2.70;;;1.60;;
11957;SDS011;6039;52.576;13.348;2022-09-03T01:58:26;3.43;;;1.47;;
11957;SDS011;6039;52.576;13.348;2022-09-03T02:03:37;4.37;;;1.40;;
11957;SDS011;6039;52.576;13.348;2022-09-03T02:08:40;2.50;;;1.47;;
11957;SDS011;6039;52.576;13.348;2022-09-03T02:13:43;3.03;;;1.50;;
11957;SDS011;6039;52.576;13.348;2022-09-03T02:18:49;5.10;;;1.80;;
11957;SDS011;6039;52.576;13.348;2022-09-03T02:23:53;2.47;;;1.70;;
11957;SDS011;6039;52.576;13.348;2022-09-03T02:28:55;5.73;;;1.77;;
11957;SDS011;6039;52.576;13.348;2022-09-03T02:34:00;4.00;;;1.70;;
11957;SDS011;6039;52.576;13.348;2022-09-03T02:39:02;2.80;;;1.70;;
11957;SDS011;6039;52.576;13.348;2022-09-03T02:44:07;2.80;;;1.63;;
11957;SDS011;6039;52.576;13.348;2022-09-03T02:49:14;4.30;;;2.00;;
11957;SDS011;6039;52.576;13.348;2022-09-03T02:54:16;4.37;;;1.60;;
11957;SDS011;6039;52.576;13.348;2022-09-03T02:59:19;4.47;;;2.07;;
11957;SDS011;6039;52.576;13.348;2022-09-03T03:04:23;3.23;;;1.77;;
11957;SDS011;6039;52.576;13.348;2022-09-03T03:09:26;3.37;;;2.00;;
11957;SDS011;6039;52.576;13.348;2022-09-03T03:14:28;2.70;;;1.80;;
11957;SDS011;6039;52.576;13.348;2022-09-03T03:19:32;5.33;;;2.10;;
11957;SDS011;6039;52.576;13.348;2022-09-03T03:24:35;2.57;;;1.90;;
11957;SDS011;6039;52.576;13.348;2022-09-03T03:29:37;3.10;;;1.70;;
11957;SDS011;6039;52.576;13.348;2022-09-03T03:34:41;6.00;;;1.97;;
11957;SDS011;6039;52.576;13.348;2022-09-03T03:39:43;4.50;;;2.10;;
11957;SDS011;6039;52.576;13.348;2022-09-03T03:44:46;4.43;;;1.67;;
11957;SDS011;6039;52.576;13.348;2022-09-03T03:49:49;7.63;;;2.03;;
11957;SDS011;6039;52.576;13.348;2022-09-03T03:54:52;4.40;;;2.00;;
11957;SDS011;6039;52.576;13.348;2022-09-03T03:59:55;4.27;;;2.20;;
11957;SDS011;6039;52.576;13.348;2022-09-03T04:04:59;3.40;;;1.70;;
11957;SDS011;6039;52.576;13.348;2022-09-03T04:10:01;5.23;;;1.90;;
11957;SDS011;6039;52.576;13.348;2022-09-03T04:15:05;2.97;;;2.07;;
11957;SDS011;6039;52.576;13.348;2022-09-03T04:20:09;3.73;;;2.03;;
11957;SDS011;6039;52.576;13.348;2022-09-03T04:25:11;7.77;;;2.30;;
11957;SDS011;6039;52.576;13.348;2022-09-03T04:30:14;3.20;;;2.20;;
11957;SDS011;6039;52.576;13.348;2022-09-03T04:35:17;3.40;;;2.10;;
11957;SDS011;6039;52.576;13.348;2022-09-03T04:40:20;4.60;;;2.30;;
11957;SDS011;6039;52.576;13.348;2022-09-03T04:45:22;6.57;;;2.03;;
11957;SDS011;6039;52.576;13.348;2022-09-03T04:50:27;6.43;;;2.73;;
11957;SDS011;6039;52.576;13.348;2022-09-03T04:55:31;3.17;;;2.10;;
11957;SDS011;6039;52.576;13.348;2022-09-03T05:00:35;5.57;;;2.50;;
11957;SDS011;6039;52.576;13.348;2022-09-03T05:05:39;4.20;;;2.30;;
11957;SDS011;6039;52.576;13.348;2022-09-03T05:10:41;4.00;;;2.33;;
11957;SDS011;6039;52.576;13.348;2022-09-03T05:15:43;2.87;;;2.43;;
11957;SDS011;6039;52.576;13.348;2022-09-03T05:20:47;4.23;;;2.50;;
11957;SDS011;6039;52.576;13.348;2022-09-03T05:26:00;4.77;;;2.30;;
11957;SDS011;6039;52.576;13.348;2022-09-03T05:31:09;3.43;;;2.30;;
11957;SDS011;6039;52.576;13.348;2022-09-03T05:36:15;3.77;;;2.33;;
11957;SDS011;6039;52.576;13.348;2022-09-03T05:41:19;5.00;;;2.33;;
11957;SDS011;6039;52.576;13.348;2022-09-03T05:46:22;3.50;;;2.30;;
11957;SDS011;6039;52.576;13.348;2022-09-03T05:51:28;3.80;;;2.70;;
11957;SDS011;6039;52.576;13.348;2022-09-03T05:56:31;5.63;;;2.47;;
11957;SDS011;6039;52.576;13.348;2022-09-03T06:01:35;3.97;;;2.27;;
11957;SDS011;6039;52.576;13.348;2022-09-03T06:06:40;3.67;;;2.57;;
11957;SDS011;6039;52.576;13.348;2022-09-03T06:11:44;2.80;;;2.37;;
11957;SDS011;6039;52.576;13.348;2022-09-03T06:16:48;5.13;;;2.57;;
11957;SDS011;6039;52.576;13.348;2022-09-03T06:21:53;4.20;;;2.40;;
11957;SDS011;6039;52.576;13.348;2022-09-03T06:26:55;4.83;;;2.63;;
11957;SDS011;6039;52.576;13.348;2022-09-03T06:31:58;4.23;;;2.23;;
11957;SDS011;6039;52.576;13.348;2022-09-03T06:37:02;4.00;;;2.03;;
11957;SDS011;6039;52.576;13.348;2022-09-03T06:42:05;3.60;;;2.20;;
11957;SDS011;6039;52.576;13.348;2022-09-03T06:47:08;8.47;;;2.73;;
11957;SDS011;6039;52.576;13.348;2022-09-03T06:52:12;3.00;;;2.33;;
11957;SDS011;6039;52.576;13.348;2022-09-03T06:57:14;8.03;;;2.40;;
11957;SDS011;6039;52.576;13.348;2022-09-03T07:02:17;6.00;;;1.97;;
11957;SDS011;6039;52.576;13.348;2022-09-03T07:07:23;3.57;;;2.20;;
11957;SDS011;6039;52.576;13.348;2022-09-03T07:12:25;4.83;;;2.10;;
11957;SDS011;6039;52.576;13.348;2022-09-03T07:17:27;6.40;;;1.90;;
11957;SDS011;6039;52.576;13.348;2022-09-03T07:22:31;3.53;;;2.00;;
11957;SDS011;6039;52.576;13.348;2022-09-03T07:27:34;2.73;;;2.30;;
11957;SDS011;6039;52.576;13.348;2022-09-03T07:32:36;2.90;;;1.87;;
11957;SDS011;6039;52.576;13.348;2022-09-03T07:37:46;8.00;;;2.00;;
11957;SDS011;6039;52.576;13.348;2022-09-03T07:42:49;2.47;;;1.73;;
11957;SDS011;6039;52.576;13.348;2022-09-03T07:47:57;3.80;;;2.10;;
11957;SDS011;6039;52.576;13.348;2022-09-03T07:53:01;2.53;;;1.93;;
11957;SDS011;6039;52.576;13.348;2022-09-03T07:58:04;2.57;;;1.60;;
11957;SDS011;6039;52.576;13.348;2022-09-03T08:03:06;5.00;;;2.10;;
11957;SDS011;6039;52.576;13.348;2022-09-03T08:08:11;4.85;;;2.20;;
11957;SDS011;6039;52.576;13.348;2022-09-03T08:13:14;3.87;;;1.80;;
11957;SDS011;6039;52.576;13.348;2022-09-03T08:18:16;3.05;;;1.70;;
11957;SDS011;6039;52.576;13.348;2022-09-03T08:23:20;2.93;;;1.90;;
11957;SDS011;6039;52.576;13.348;2022-09-03T08:28:22;4.13;;;2.10;;
11957;SDS011;6039;52.576;13.348;2022-09-03T08:33:25;7.00;;;1.90;;
11957;SDS011;6039;52.576;13.348;2022-09-03T08:38:38;7.87;;;2.20;;
11957;SDS011;6039;52.576;13.348;2022-09-03T08:43:50;2.10;;;1.90;;
11957;SDS011;6039;52.576;13.348;2022-09-03T08:49:00;6.40;;;2.20;;
11957;SDS011;6039;52.576;13.348;2022-09-03T08:54:04;6.68;;;2.35;;
11957;SDS011;6039;52.576;13.348;2022-09-03T08:59:09;6.55;;;2.17;;
11957;SDS011;6039;52.576;13.348;2022-09-03T09:04:15;4.03;;;1.90;;
11957;SDS011;6039;52.576;13.348;2022-09-03T09:09:26;5.32;;;2.00;;
11957;SDS011;6039;52.576;13.348;2022-09-03T09:14:34;2.63;;;1.80;;
11957;SDS011;6039;52.576;13.348;2022-09-03T09:19:41;3.90;;;1.77;;
11957;SDS011;6039;52.576;13.348;2022-09-03T09:24:51;3.40;;;1.70;;
11957;SDS011;6039;52.576;13.348;2022-09-03T09:29:54;2.58;;;1.80;;
11957;SDS011;6039;52.576;13.348;2022-09-03T09:35:00;3.20;;;1.70;;
11957;SDS011;6039;52.576;13.348;2022-09-03T09:40:05;5.85;;;1.90;;
11957;SDS011;6039;52.576;13.348;2022-09-03T09:45:09;2.13;;;1.60;;
11957;SDS011;6039;52.576;13.348;2022-09-03T09:50:15;2.65;;;1.60;;
11957;SDS011;6039;52.576;13.348;2022-09-03T09:55:21;3.28;;;1.60;;
11957;SDS011;6039;52.576;13.348;2022-09-03T10:00:25;3.38;;;1.67;;
11957;SDS011;6039;52.576;13.348;2022-09-03T10:05:28;3.45;;;1.80;;
11957;SDS011;6039;52.576;13.348;2022-09-03T10:10:35;5.93;;;1.80;;
11957;SDS011;6039;52.576;13.348;2022-09-03T10:15:43;3.47;;;1.73;;
11957;SDS011;6039;52.576;13.348;2022-09-03T10:20:51;2.40;;;1.70;;
11957;SDS011;6039;52.576;13.348;2022-09-03T10:26:01;3.60;;;1.52;;
11957;SDS011;6039;52.576;13.348;2022-09-03T10:31:23;2.75;;;1.73;;
11957;SDS011;6039;52.576;13.348;2022-09-03T10:36:38;2.30;;;1.40;;
11957;SDS011;6039;52.576;13.348;2022-09-03T10:41:51;1.88;;;1.30;;
11957;SDS011;6039;52.576;13.348;2022-09-03T10:47:05;5.03;;;1.40;;
11957;SDS011;6039;52.576;13.348;2022-09-03T10:52:21;2.70;;;1.77;;
11957;SDS011;6039;52.576;13.348;2022-09-03T10:57:30;5.60;;;2.03;;
11957;SDS011;6039;52.576;13.348;2022-09-03T11:02:47;4.35;;;1.75;;
11957;SDS011;6039;52.576;13.348;2022-09-03T11:07:59;3.03;;;1.60;;
11957;SDS011;6039;52.576;13.348;2022-09-03T11:13:08;2.95;;;1.63;;
11957;SDS011;6039;52.576;13.348;2022-09-03T11:18:14;3.50;;;1.77;;
11957;SDS011;6039;52.576;13.348;2022-09-03T11:23:19;6.88;;;1.80;;
11957;SDS011;6039;52.576;13.348;2022-09-03T11:28:29;3.17;;;1.80;;
11957;SDS011;6039;52.576;13.348;2022-09-03T11:33:38;3.13;;;1.48;;
11957;SDS011;6039;52.576;13.348;2022-09-03T11:38:44;4.88;;;1.75;;
11957;SDS011;6039;52.576;13.348;2022-09-03T11:43:48;2.45;;;1.55;;
11957;SDS011;6039;52.576;13.348;2022-09-03T11:48:50;5.70;;;1.70;;
11957;SDS011;6039;52.576;13.348;2022-09-03T11:53:54;2.22;;;1.50;;
11957;SDS011;6039;52.576;13.348;2022-09-03T11:59:00;6.33;;;1.80;;
11957;SDS011;6039;52.576;13.348;2022-09-03T12:04:15;1.83;;;1.65;;
11957;SDS011;6039;52.576;13.348;2022-09-03T12:09:33;4.45;;;1.88;;
11957;SDS011;6039;52.576;13.348;2022-09-03T12:14:47;3.95;;;1.90;;
11957;SDS011;6039;52.576;13.348;2022-09-03T12:19:56;3.15;;;1.70;;
11957;SDS011;6039;52.576;13.348;2022-09-03T12:25:06;2.63;;;1.60;;
11957;SDS011;6039;52.576;13.348;2022-09-03T12:30:14;5.43;;;1.70;;
11957;SDS011;6039;52.576;13.348;2022-09-03T12:35:18;4.73;;;1.37;;
11957;SDS011;6039;52.576;13.348;2022-09-03T12:40:23;6.68;;;1.77;;
11957;SDS011;6039;52.576;13.348;2022-09-03T12:45:28;1.48;;;1.38;;
11957;SDS011;6039;52.576;13.348;2022-09-03T12:50:31;1.85;;;1.40;;
11957;SDS011;6039;52.576;13.348;2022-09-03T12:55:37;2.42;;;1.60;;
11957;SDS011;6039;52.576;13.348;2022-09-03T13:00:44;2.58;;;1.50;;
11957;SDS011;6039;52.576;13.348;2022-09-03T13:05:50;1.70;;;1.60;;
11957;SDS011;6039;52.576;13.348;2022-09-03T13:10:55;2.63;;;1.87;;
11957;SDS011;6039;52.576;13.348;2022-09-03T13:16:05;1.40;;;1.23;;
11957;SDS011;6039;52.576;13.348;2022-09-03T13:21:38;1.40;;;1.20;;
11957;SDS011;6039;52.576;13.348;2022-09-03T13:26:46;3.63;;;1.63;;
11957;SDS011;6039;52.576;13.348;2022-09-03T13:31:54;2.43;;;1.77;;
11957;SDS011;6039;52.576;13.348;2022-09-03T13:37:04;2.43;;;1.70;;
11957;SDS011;6039;52.576;13.348;2022-09-03T13:42:24;2.43;;;1.50;;
11957;SDS011;6039;52.576;13.348;2022-09-03T13:47:35;3.50;;;1.33;;
11957;SDS011;6039;52.576;13.348;2022-09-03T13:53:01;5.22;;;1.50;;
11957;SDS011;6039;52.576;13.348;2022-09-03T13:58:08;2.28;;;1.70;;
11957;SDS011;6039;52.576;13.348;2022-09-03T14:03:22;3.20;;;1.53;;
11957;SDS011;6039;52.576;13.348;2022-09-03T14:08:31;6.38;;;2.00;;
11957;SDS011;6039;52.576;13.348;2022-09-03T14:13:38;3.40;;;1.88;;
11957;SDS011;6039;52.576;13.348;2022-09-03T14:18:50;2.75;;;1.50;;
11957;SDS011;6039;52.576;13.348;2022-09-03T14:23:58;3.07;;;1.67;;
11957;SDS011;6039;52.576;13.348;2022-09-03T14:29:05;2.43;;;1.57;;
11957;SDS011;6039;52.576;13.348;2022-09-03T14:34:18;2.55;;;1.52;;
11957;SDS011;6039;52.576;13.348;2022-09-03T14:39:31;1.55;;;1.38;;
11957;SDS011;6039;52.576;13.348;2022-09-03T14:44:47;3.30;;;1.50;;
11957;SDS011;6039;52.576;13.348;2022-09-03T14:50:17;3.22;;;1.83;;
11957;SDS011;6039;52.576;13.348;2022-09-03T14:55:31;5.50;;;1.92;;
11957;SDS011;6039;52.576;13.348;2022-09-03T15:00:45;6.77;;;1.57;;
11957;SDS011;6039;52.576;13.348;2022-09-03T15:06:02;4.67;;;1.57;;
11957;SDS011;6039;52.576;13.348;2022-09-03T15:11:18;2.23;;;1.77;;
11957;SDS011;6039;52.576;13.348;2022-09-03T15:16:29;2.10;;;1.60;;
11957;SDS011;6039;52.576;13.348;2022-09-03T15:21:42;2.33;;;1.80;;
11957;SDS011;6039;52.576;13.348;2022-09-03T15:27:00;2.90;;;1.40;;
11957;SDS011;6039;52.576;13.348;2022-09-03T15:32:13;3.37;;;1.90;;
11957;SDS011;6039;52.576;13.348;2022-09-03T15:37:24;2.00;;;1.70;;
11957;SDS011;6039;52.576;13.348;2022-09-03T15:42:28;5.37;;;1.83;;
11957;SDS011;6039;52.576;13.348;2022-09-03T15:47:35;3.03;;;1.80;;
11957;SDS011;6039;52.576;13.348;2022-09-03T15:52:48;3.67;;;1.80;;
11957;SDS011;6039;52.576;13.348;2022-09-03T15:57:57;4.23;;;1.77;;
11957;SDS011;6039;52.576;13.348;2022-09-03T16:03:07;7.67;;;2.00;;
11957;SDS011;6039;52.576;13.348;2022-09-03T16:08:16;5.07;;;1.80;;
11957;SDS011;6039;52.576;13.348;2022-09-03T16:13:38;6.60;;;1.90;;
11957;SDS011;6039;52.576;13.348;2022-09-03T16:18:56;2.43;;;1.80;;
11957;SDS011;6039;52.576;13.348;2022-09-03T16:24:04;3.73;;;2.40;;
11957;SDS011;6039;52.576;13.348;2022-09-03T16:29:14;3.00;;;2.10;;
11957;SDS011;6039;52.576;13.348;2022-09-03T16:34:22;7.93;;;2.40;;
11957;SDS011;6039;52.576;13.348;2022-09-03T16:39:42;3.67;;;2.40;;
11957;SDS011;6039;52.576;13.348;2022-09-03T16:44:54;5.53;;;2.27;;
11957;SDS011;6039;52.576;13.348;2022-09-03T16:50:07;3.97;;;2.33;;
11957;SDS011;6039;52.576;13.348;2022-09-03T16:55:21;3.67;;;2.13;;
11957;SDS011;6039;52.576;13.348;2022-09-03T17:00:26;5.10;;;2.13;;
11957;SDS011;6039;52.576;13.348;2022-09-03T17:05:46;4.23;;;2.47;;
11957;SDS011;6039;52.576;13.348;2022-09-03T17:11:21;6.50;;;2.63;;
11957;SDS011;6039;52.576;13.348;2022-09-03T17:16:38;4.03;;;2.40;;
11957;SDS011;6039;52.576;13.348;2022-09-03T17:21:46;2.87;;;2.23;;
11957;SDS011;6039;52.576;13.348;2022-09-03T17:26:53;6.77;;;5.93;;
11957;SDS011;6039;52.576;13.348;2022-09-03T17:32:08;7.30;;;2.60;;
11957;SDS011;6039;52.576;13.348;2022-09-03T17:37:22;3.97;;;2.40;;
11957;SDS011;6039;52.576;13.348;2022-09-03T17:42:35;3.17;;;2.50;;
11957;SDS011;6039;52.576;13.348;2022-09-03T17:47:47;4.23;;;2.70;;
11957;SDS011;6039;52.576;13.348;2022-09-03T17:53:08;4.50;;;2.70;;
11957;SDS011;6039;52.576;13.348;2022-09-03T17:58:20;4.80;;;2.70;;
11957;SDS011;6039;52.576;13.348;2022-09-03T18:03:26;4.93;;;2.80;;
11957;SDS011;6039;52.576;13.348;2022-09-03T18:08:39;4.53;;;2.50;;
11957;SDS011;6039;52.576;13.348;2022-09-03T18:13:49;3.60;;;2.53;;
11957;SDS011;6039;52.576;13.348;2022-09-03T18:18:59;3.63;;;3.10;;
11957;SDS011;6039;52.576;13.348;2022-09-03T18:24:06;6.83;;;3.27;;
11957;SDS011;6039;52.576;13.348;2022-09-03T18:29:42;4.87;;;3.67;;
11957;SDS011;6039;52.576;13.348;2022-09-03T18:35:05;5.43;;;3.00;;
11957;SDS011;6039;52.576;13.348;2022-09-03T18:40:27;5.50;;;2.90;;
11957;SDS011;6039;52.576;13.348;2022-09-03T18:45:54;4.97;;;4.23;;
11957;SDS011;6039;52.576;13.348;2022-09-03T18:51:21;7.17;;;3.90;;
11957;SDS011;6039;52.576;13.348;2022-09-03T18:56:47;6.80;;;4.00;;
11957;SDS011;6039;52.576;13.348;2022-09-03T19:02:12;8.33;;;4.23;;
11957;SDS011;6039;52.576;13.348;2022-09-03T19:07:42;7.10;;;4.27;;
11957;SDS011;6039;52.576;13.348;2022-09-03T19:13:12;8.90;;;3.80;;
11957;SDS011;6039;52.576;13.348;2022-09-03T19:18:51;6.30;;;3.70;;
11957;SDS011;6039;52.576;13.348;2022-09-03T19:24:28;5.93;;;4.33;;
11957;SDS011;6039;52.576;13.348;2022-09-03T19:29:53;5.63;;;4.27;;
11957;SDS011;6039;52.576;13.348;2022-09-03T19:35:20;5.87;;;4.40;;
11957;SDS011;6039;52.576;13.348;2022-09-03T19:40:47;6.37;;;4.07;;
11957;SDS011;6039;52.576;13.348;2022-09-03T19:46:17;4.70;;;4.00;;
11957;SDS011;6039;52.576;13.348;2022-09-03T19:51:43;7.03;;;4.13;;
11957;SDS011;6039;52.576;13.348;2022-09-03T19:57:07;10.13;;;6.77;;
11957;SDS011;6039;52.576;13.348;2022-09-03T20:02:30;5.33;;;4.00;;
11957;SDS011;6039;52.576;13.348;2022-09-03T20:07:52;9.03;;;4.80;;
11957;SDS011;6039;52.576;13.348;2022-09-03T20:13:14;6.33;;;4.70;;
11957;SDS011;6039;52.576;13.348;2022-09-03T20:18:21;8.97;;;4.43;;
11957;SDS011;6039;52.576;13.348;2022-09-03T20:23:32;7.30;;;4.77;;
11957;SDS011;6039;52.576;13.348;2022-09-03T20:28:53;4.83;;;4.13;;
11957;SDS011;6039;52.576;13.348;2022-09-03T20:34:04;7.20;;;3.97;;
11957;SDS011;6039;52.576;13.348;2022-09-03T20:39:23;5.37;;;3.57;;
11957;SDS011;6039;52.576;13.348;2022-09-03T20:44:37;16.43;;;11.43;;
11957;SDS011;6039;52.576;13.348;2022-09-03T20:49:52;4.97;;;3.73;;
11957;SDS011;6039;52.576;13.348;2022-09-03T20:55:03;5.50;;;3.23;;
11957;SDS011;6039;52.576;13.348;2022-09-03T21:00:08;5.77;;;2.90;;
11957;SDS011;6039;52.576;13.348;2022-09-03T21:05:13;7.77;;;3.20;;
11957;SDS011;6039;52.576;13.348;2022-09-03T21:10:22;7.77;;;3.73;;
11957;SDS011;6039;52.576;13.348;2022-09-03T21:15:31;4.23;;;3.57;;
11957;SDS011;6039;52.576;13.348;2022-09-03T21:20:43;5.47;;;3.90;;
11957;SDS011;6039;52.576;13.348;2022-09-03T21:25:52;7.00;;;3.90;;
11957;SDS011;6039;52.576;13.348;2022-09-03T21:30:58;7.37;;;3.80;;
11957;SDS011;6039;52.576;13.348;2022-09-03T21:36:04;6.90;;;3.40;;
11957;SDS011;6039;52.576;13.348;2022-09-03T21:41:13;5.07;;;2.93;;
11957;SDS011;6039;52.576;13.348;2022-09-03T21:46:18;6.33;;;2.67;;
11957;SDS011;6039;52.576;13.348;2022-09-03T21:51:24;5.00;;;2.30;;
11957;SDS011;6039;52.576;13.348;2022-09-03T21:56:46;7.10;;;2.70;;
11957;SDS011;6039;52.576;13.348;2022-09-03T22:01:54;6.00;;;2.43;;
11957;SDS011;6039;52.576;13.348;2022-09-03T22:07:04;4.67;;;3.30;;
11957;SDS011;6039;52.576;13.348;2022-09-03T22:12:12;7.23;;;2.40;;
11957;SDS011;6039;52.576;13.348;2022-09-03T22:17:21;8.83;;;2.97;;
11957;SDS011;6039;52.576;13.348;2022-09-03T22:22:27;5.70;;;2.73;;
11957;SDS011;6039;52.576;13.348;2022-09-03T22:27:37;9.33;;;2.73;;
11957;SDS011;6039;52.576;13.348;2022-09-03T22:32:46;6.50;;;2.30;;
11957;SDS011;6039;52.576;13.348;2022-09-03T22:37:58;8.03;;;2.57;;
11957;SDS011;6039;52.576;13.348;2022-09-03T22:43:14;5.63;;;3.00;;
11957;SDS011;6039;52.576;13.348;2022-09-03T22:54:15;6.57;;;2.43;;
11957;SDS011;6039;52.576;13.348;2022-09-03T22:59:30;4.40;;;2.10;;
11957;SDS011;6039;52.576;13.348;2022-09-03T23:04:37;4.17;;;2.17;;
11957;SDS011;6039;52.576;13.348;2022-09-03T23:09:42;4.23;;;1.70;;
11957;SDS011;6039;52.576;13.348;2022-09-03T23:14:48;4.17;;;2.00;;
11957;SDS011;6039;52.576;13.348;2022-09-03T23:19:53;6.20;;;2.00;;
11957;SDS011;6039;52.576;13.348;2022-09-03T23:25:02;3.83;;;1.90;;
11957;SDS011;6039;52.576;13.348;2022-09-03T23:30:08;3.93;;;2.23;;
11957;SDS011;6039;52.576;13.348;2022-09-03T23:35:11;6.70;;;2.00;;
11957;SDS011;6039;52.576;13.348;2022-09-03T23:40:22;6.47;;;2.00;;
11957;SDS011;6039;52.576;13.348;2022-09-03T23:45:42;4.23;;;2.10;;
11957;SDS011;6039;52.576;13.348;2022-09-03T23:50:51;10.50;;;2.10;;
11957;SDS011;6039;52.576;13.348;2022-09-03T23:56:05;3.50;;;2.00;;
